Terminal Aerodrome Forecast
Issued by NWS Twin Cities, MN

Home | Current Version | Previous Version | Text Only | Print | Product List | Glossary On
Versions: 1 2 3 4 5 6 7 8 9 10 11 12 13 14 15 16 17 18 19 20 21 22 23 24 25 26 27 28 29 30
000
FTUS43 KMPX 230000 AAA
TAFMSP
TAF AMD
KMSP 230059Z 2301/2406 16008KT 2SM BR OVC003
      TEMPO 2305/2309 3/4SM BR VV002
     FM231400 22006KT 3SM BR OVC006
     FM231700 26005KT P6SM BKN015 OVC050
     FM231900 29008KT P6SM SCT020 OVC080=

USA.gov is the U.S. government's official web portal to all federal, state and local government web resources and services.